sensor_id;sensor_type;location;lat;lon;timestamp;P1;durP1;ratioP1;P2;durP2;ratioP2
68188;SDS011;66299;47.514;19.218;2023-02-26T00:00:27;12.38;;;6.20;;
68188;SDS011;66299;47.514;19.218;2023-02-26T00:02:56;12.63;;;6.25;;
68188;SDS011;66299;47.514;19.218;2023-02-26T00:05:27;12.23;;;6.00;;
68188;SDS011;66299;47.514;19.218;2023-02-26T00:08:02;15.75;;;6.10;;
68188;SDS011;66299;47.514;19.218;2023-02-26T00:10:31;13.27;;;6.55;;
68188;SDS011;66299;47.514;19.218;2023-02-26T00:13:03;12.52;;;6.63;;
68188;SDS011;66299;47.514;19.218;2023-02-26T00:15:37;13.70;;;6.25;;
68188;SDS011;66299;47.514;19.218;2023-02-26T00:18:08;12.55;;;6.05;;
68188;SDS011;66299;47.514;19.218;2023-02-26T00:20:43;12.27;;;6.45;;
68188;SDS011;66299;47.514;19.218;2023-02-26T00:23:14;13.55;;;6.50;;
68188;SDS011;66299;47.514;19.218;2023-02-26T00:25:45;12.57;;;6.53;;
68188;SDS011;66299;47.514;19.218;2023-02-26T00:28:16;14.73;;;6.40;;
68188;SDS011;66299;47.514;19.218;2023-02-26T00:30:46;12.30;;;5.85;;
68188;SDS011;66299;47.514;19.218;2023-02-26T00:33:16;11.45;;;6.07;;
68188;SDS011;66299;47.514;19.218;2023-02-26T00:35:50;11.98;;;5.70;;
68188;SDS011;66299;47.514;19.218;2023-02-26T00:38:30;13.93;;;5.95;;
68188;SDS011;66299;47.514;19.218;2023-02-26T00:41:03;11.25;;;5.47;;
68188;SDS011;66299;47.514;19.218;2023-02-26T00:43:37;11.43;;;6.07;;
68188;SDS011;66299;47.514;19.218;2023-02-26T00:46:09;11.65;;;6.05;;
68188;SDS011;66299;47.514;19.218;2023-02-26T00:48:51;13.70;;;6.18;;
68188;SDS011;66299;47.514;19.218;2023-02-26T00:51:27;13.38;;;6.60;;
68188;SDS011;66299;47.514;19.218;2023-02-26T00:54:03;12.40;;;6.53;;
68188;SDS011;66299;47.514;19.218;2023-02-26T00:56:40;13.52;;;6.75;;
68188;SDS011;66299;47.514;19.218;2023-02-26T00:59:10;13.50;;;6.18;;
68188;SDS011;66299;47.514;19.218;2023-02-26T01:01:39;16.00;;;7.50;;
68188;SDS011;66299;47.514;19.218;2023-02-26T01:04:14;14.80;;;6.70;;
68188;SDS011;66299;47.514;19.218;2023-02-26T01:06:44;15.43;;;7.00;;
68188;SDS011;66299;47.514;19.218;2023-02-26T01:09:16;12.10;;;6.20;;
68188;SDS011;66299;47.514;19.218;2023-02-26T01:11:51;12.77;;;6.63;;
68188;SDS011;66299;47.514;19.218;2023-02-26T01:14:24;12.90;;;6.60;;
68188;SDS011;66299;47.514;19.218;2023-02-26T01:16:55;12.63;;;6.45;;
68188;SDS011;66299;47.514;19.218;2023-02-26T01:19:35;13.60;;;6.82;;
68188;SDS011;66299;47.514;19.218;2023-02-26T01:22:09;12.05;;;6.35;;
68188;SDS011;66299;47.514;19.218;2023-02-26T01:24:51;13.60;;;7.03;;
68188;SDS011;66299;47.514;19.218;2023-02-26T01:27:29;12.77;;;6.55;;
68188;SDS011;66299;47.514;19.218;2023-02-26T01:30:00;13.02;;;6.72;;
68188;SDS011;66299;47.514;19.218;2023-02-26T01:32:35;12.05;;;6.32;;
68188;SDS011;66299;47.514;19.218;2023-02-26T01:35:12;13.70;;;6.28;;
68188;SDS011;66299;47.514;19.218;2023-02-26T01:37:55;12.52;;;6.80;;
68188;SDS011;66299;47.514;19.218;2023-02-26T01:40:40;12.15;;;6.50;;
68188;SDS011;66299;47.514;19.218;2023-02-26T01:43:26;12.98;;;6.68;;
68188;SDS011;66299;47.514;19.218;2023-02-26T01:46:02;13.57;;;6.72;;
68188;SDS011;66299;47.514;19.218;2023-02-26T01:48:48;11.90;;;6.68;;
68188;SDS011;66299;47.514;19.218;2023-02-26T01:54:16;12.68;;;6.47;;
68188;SDS011;66299;47.514;19.218;2023-02-26T01:56:48;12.73;;;6.60;;
68188;SDS011;66299;47.514;19.218;2023-02-26T01:59:20;14.60;;;6.47;;
68188;SDS011;66299;47.514;19.218;2023-02-26T02:01:53;12.10;;;6.38;;
68188;SDS011;66299;47.514;19.218;2023-02-26T02:04:24;13.13;;;6.72;;
68188;SDS011;66299;47.514;19.218;2023-02-26T02:06:55;13.32;;;6.70;;
68188;SDS011;66299;47.514;19.218;2023-02-26T02:09:24;13.27;;;7.15;;
68188;SDS011;66299;47.514;19.218;2023-02-26T02:11:59;15.32;;;7.88;;
68188;SDS011;66299;47.514;19.218;2023-02-26T02:14:40;13.40;;;7.03;;
68188;SDS011;66299;47.514;19.218;2023-02-26T02:17:18;14.13;;;6.90;;
68188;SDS011;66299;47.514;19.218;2023-02-26T02:20:08;16.25;;;6.78;;
68188;SDS011;66299;47.514;19.218;2023-02-26T02:23:09;12.70;;;6.85;;
68188;SDS011;66299;47.514;19.218;2023-02-26T02:28:59;13.63;;;6.72;;
68188;SDS011;66299;47.514;19.218;2023-02-26T02:32:00;13.82;;;6.93;;
68188;SDS011;66299;47.514;19.218;2023-02-26T02:34:35;12.82;;;6.80;;
68188;SDS011;66299;47.514;19.218;2023-02-26T02:37:16;12.30;;;6.65;;
68188;SDS011;66299;47.514;19.218;2023-02-26T02:39:52;12.77;;;6.60;;
68188;SDS011;66299;47.514;19.218;2023-02-26T02:42:25;13.32;;;6.85;;
68188;SDS011;66299;47.514;19.218;2023-02-26T02:45:00;13.45;;;6.88;;
68188;SDS011;66299;47.514;19.218;2023-02-26T02:47:35;14.45;;;7.00;;
68188;SDS011;66299;47.514;19.218;2023-02-26T02:50:10;12.68;;;6.78;;
68188;SDS011;66299;47.514;19.218;2023-02-26T02:52:45;12.77;;;6.60;;
68188;SDS011;66299;47.514;19.218;2023-02-26T02:55:19;12.07;;;6.28;;
68188;SDS011;66299;47.514;19.218;2023-02-26T02:57:55;13.68;;;7.10;;
68188;SDS011;66299;47.514;19.218;2023-02-26T03:00:30;13.43;;;6.70;;
68188;SDS011;66299;47.514;19.218;2023-02-26T03:03:05;12.73;;;7.15;;
68188;SDS011;66299;47.514;19.218;2023-02-26T03:05:42;12.88;;;6.60;;
68188;SDS011;66299;47.514;19.218;2023-02-26T03:08:18;13.50;;;7.03;;
68188;SDS011;66299;47.514;19.218;2023-02-26T03:10:52;13.57;;;6.63;;
68188;SDS011;66299;47.514;19.218;2023-02-26T03:13:23;12.50;;;6.73;;
68188;SDS011;66299;47.514;19.218;2023-02-26T03:16:00;12.70;;;6.80;;
68188;SDS011;66299;47.514;19.218;2023-02-26T03:18:44;13.07;;;6.72;;
68188;SDS011;66299;47.514;19.218;2023-02-26T03:21:20;12.43;;;6.57;;
68188;SDS011;66299;47.514;19.218;2023-02-26T03:23:59;11.63;;;6.28;;
68188;SDS011;66299;47.514;19.218;2023-02-26T03:26:35;13.40;;;7.00;;
68188;SDS011;66299;47.514;19.218;2023-02-26T03:29:12;12.32;;;6.93;;
68188;SDS011;66299;47.514;19.218;2023-02-26T03:31:48;14.43;;;7.30;;
68188;SDS011;66299;47.514;19.218;2023-02-26T03:34:26;12.05;;;6.55;;
68188;SDS011;66299;47.514;19.218;2023-02-26T03:37:02;12.95;;;6.72;;
68188;SDS011;66299;47.514;19.218;2023-02-26T03:39:36;12.52;;;6.88;;
68188;SDS011;66299;47.514;19.218;2023-02-26T03:42:13;13.10;;;6.78;;
68188;SDS011;66299;47.514;19.218;2023-02-26T03:44:49;13.05;;;7.13;;
68188;SDS011;66299;47.514;19.218;2023-02-26T03:47:21;12.93;;;7.05;;
68188;SDS011;66299;47.514;19.218;2023-02-26T03:52:27;13.68;;;7.18;;
68188;SDS011;66299;47.514;19.218;2023-02-26T03:55:03;13.55;;;7.53;;
68188;SDS011;66299;47.514;19.218;2023-02-26T03:57:39;12.40;;;7.18;;
68188;SDS011;66299;47.514;19.218;2023-02-26T04:00:09;13.13;;;7.22;;
68188;SDS011;66299;47.514;19.218;2023-02-26T04:02:40;12.85;;;7.53;;
68188;SDS011;66299;47.514;19.218;2023-02-26T04:05:17;13.75;;;7.53;;
68188;SDS011;66299;47.514;19.218;2023-02-26T04:07:48;13.93;;;7.40;;
68188;SDS011;66299;47.514;19.218;2023-02-26T04:10:19;13.15;;;7.50;;
68188;SDS011;66299;47.514;19.218;2023-02-26T04:12:54;14.15;;;7.50;;
68188;SDS011;66299;47.514;19.218;2023-02-26T04:15:31;13.38;;;7.40;;
68188;SDS011;66299;47.514;19.218;2023-02-26T04:18:01;14.57;;;8.13;;
68188;SDS011;66299;47.514;19.218;2023-02-26T04:20:36;13.02;;;7.63;;
68188;SDS011;66299;47.514;19.218;2023-02-26T04:23:09;14.52;;;8.13;;
68188;SDS011;66299;47.514;19.218;2023-02-26T04:25:43;14.40;;;7.75;;
68188;SDS011;66299;47.514;19.218;2023-02-26T04:28:18;15.32;;;7.80;;
68188;SDS011;66299;47.514;19.218;2023-02-26T04:30:47;13.70;;;7.68;;
68188;SDS011;66299;47.514;19.218;2023-02-26T04:33:17;14.70;;;8.20;;
68188;SDS011;66299;47.514;19.218;2023-02-26T04:35:48;14.15;;;8.00;;
68188;SDS011;66299;47.514;19.218;2023-02-26T04:38:20;14.82;;;8.30;;
68188;SDS011;66299;47.514;19.218;2023-02-26T04:40:52;15.18;;;8.48;;
68188;SDS011;66299;47.514;19.218;2023-02-26T04:43:23;14.20;;;7.95;;
68188;SDS011;66299;47.514;19.218;2023-02-26T04:45:55;15.93;;;8.75;;
68188;SDS011;66299;47.514;19.218;2023-02-26T04:48:25;16.15;;;8.30;;
68188;SDS011;66299;47.514;19.218;2023-02-26T04:50:59;14.52;;;8.32;;
68188;SDS011;66299;47.514;19.218;2023-02-26T04:53:31;15.07;;;8.40;;
68188;SDS011;66299;47.514;19.218;2023-02-26T04:56:01;14.17;;;7.87;;
68188;SDS011;66299;47.514;19.218;2023-02-26T04:58:30;13.77;;;7.65;;
68188;SDS011;66299;47.514;19.218;2023-02-26T05:01:01;14.85;;;8.43;;
68188;SDS011;66299;47.514;19.218;2023-02-26T05:03:34;14.80;;;8.50;;
68188;SDS011;66299;47.514;19.218;2023-02-26T05:06:06;14.07;;;8.23;;
68188;SDS011;66299;47.514;19.218;2023-02-26T05:08:35;15.80;;;9.27;;
68188;SDS011;66299;47.514;19.218;2023-02-26T05:11:09;15.05;;;8.75;;
68188;SDS011;66299;47.514;19.218;2023-02-26T05:13:38;14.85;;;8.65;;
68188;SDS011;66299;47.514;19.218;2023-02-26T05:16:10;15.35;;;8.80;;
68188;SDS011;66299;47.514;19.218;2023-02-26T05:18:38;17.20;;;9.15;;
68188;SDS011;66299;47.514;19.218;2023-02-26T05:21:08;16.42;;;9.50;;
68188;SDS011;66299;47.514;19.218;2023-02-26T05:23:39;15.40;;;8.75;;
68188;SDS011;66299;47.514;19.218;2023-02-26T05:26:09;15.20;;;8.85;;
68188;SDS011;66299;47.514;19.218;2023-02-26T05:28:43;16.15;;;9.15;;
68188;SDS011;66299;47.514;19.218;2023-02-26T05:31:13;15.73;;;9.20;;
68188;SDS011;66299;47.514;19.218;2023-02-26T05:33:44;17.23;;;9.40;;
68188;SDS011;66299;47.514;19.218;2023-02-26T05:36:16;16.17;;;9.35;;
68188;SDS011;66299;47.514;19.218;2023-02-26T05:38:44;15.43;;;8.80;;
68188;SDS011;66299;47.514;19.218;2023-02-26T05:41:13;16.95;;;9.52;;
68188;SDS011;66299;47.514;19.218;2023-02-26T05:43:47;15.35;;;9.02;;
68188;SDS011;66299;47.514;19.218;2023-02-26T05:46:16;18.92;;;10.02;;
68188;SDS011;66299;47.514;19.218;2023-02-26T05:48:45;18.60;;;9.88;;
68188;SDS011;66299;47.514;19.218;2023-02-26T05:51:15;18.20;;;9.80;;
68188;SDS011;66299;47.514;19.218;2023-02-26T05:53:45;16.20;;;9.25;;
68188;SDS011;66299;47.514;19.218;2023-02-26T05:56:21;19.45;;;10.50;;
68188;SDS011;66299;47.514;19.218;2023-02-26T05:58:50;15.68;;;8.93;;
68188;SDS011;66299;47.514;19.218;2023-02-26T06:01:22;15.70;;;8.60;;
68188;SDS011;66299;47.514;19.218;2023-02-26T06:03:50;15.05;;;9.00;;
68188;SDS011;66299;47.514;19.218;2023-02-26T06:06:20;14.50;;;8.40;;
68188;SDS011;66299;47.514;19.218;2023-02-26T06:08:51;17.73;;;9.60;;
68188;SDS011;66299;47.514;19.218;2023-02-26T06:11:20;15.43;;;8.95;;
68188;SDS011;66299;47.514;19.218;2023-02-26T06:13:52;15.60;;;9.00;;
68188;SDS011;66299;47.514;19.218;2023-02-26T06:16:23;15.38;;;9.02;;
68188;SDS011;66299;47.514;19.218;2023-02-26T06:18:53;16.25;;;9.30;;
68188;SDS011;66299;47.514;19.218;2023-02-26T06:21:25;15.35;;;9.10;;
68188;SDS011;66299;47.514;19.218;2023-02-26T06:23:55;17.58;;;9.63;;
68188;SDS011;66299;47.514;19.218;2023-02-26T06:26:30;18.30;;;9.88;;
68188;SDS011;66299;47.514;19.218;2023-02-26T06:29:01;17.00;;;9.68;;
68188;SDS011;66299;47.514;19.218;2023-02-26T06:31:37;15.50;;;9.32;;
68188;SDS011;66299;47.514;19.218;2023-02-26T06:34:07;30.63;;;14.95;;
68188;SDS011;66299;47.514;19.218;2023-02-26T06:36:36;31.52;;;14.38;;
68188;SDS011;66299;47.514;19.218;2023-02-26T06:39:09;21.02;;;11.07;;
68188;SDS011;66299;47.514;19.218;2023-02-26T06:41:44;18.30;;;9.35;;
68188;SDS011;66299;47.514;19.218;2023-02-26T06:44:18;16.85;;;9.80;;
68188;SDS011;66299;47.514;19.218;2023-02-26T06:46:50;20.63;;;10.95;;
68188;SDS011;66299;47.514;19.218;2023-02-26T06:49:23;20.98;;;11.38;;
68188;SDS011;66299;47.514;19.218;2023-02-26T06:51:55;15.57;;;9.00;;
68188;SDS011;66299;47.514;19.218;2023-02-26T06:54:26;18.63;;;10.40;;
68188;SDS011;66299;47.514;19.218;2023-02-26T06:56:56;16.02;;;8.90;;
68188;SDS011;66299;47.514;19.218;2023-02-26T06:59:30;17.65;;;9.13;;
68188;SDS011;66299;47.514;19.218;2023-02-26T07:01:59;16.50;;;9.30;;
68188;SDS011;66299;47.514;19.218;2023-02-26T07:04:29;16.15;;;9.45;;
68188;SDS011;66299;47.514;19.218;2023-02-26T07:07:01;14.85;;;8.82;;
68188;SDS011;66299;47.514;19.218;2023-02-26T07:09:31;15.13;;;8.75;;
68188;SDS011;66299;47.514;19.218;2023-02-26T07:12:02;16.23;;;9.50;;
68188;SDS011;66299;47.514;19.218;2023-02-26T07:14:31;16.77;;;9.30;;
68188;SDS011;66299;47.514;19.218;2023-02-26T07:17:00;18.08;;;9.90;;
68188;SDS011;66299;47.514;19.218;2023-02-26T07:19:31;17.73;;;10.07;;
68188;SDS011;66299;47.514;19.218;2023-02-26T07:22:02;20.27;;;10.32;;
68188;SDS011;66299;47.514;19.218;2023-02-26T07:24:31;17.80;;;10.23;;
68188;SDS011;66299;47.514;19.218;2023-02-26T07:26:59;16.67;;;9.13;;
68188;SDS011;66299;47.514;19.218;2023-02-26T07:29:29;16.42;;;9.65;;
68188;SDS011;66299;47.514;19.218;2023-02-26T07:31:58;16.08;;;9.30;;
68188;SDS011;66299;47.514;19.218;2023-02-26T07:34:27;15.60;;;9.05;;
68188;SDS011;66299;47.514;19.218;2023-02-26T07:36:58;23.52;;;8.82;;
68188;SDS011;66299;47.514;19.218;2023-02-26T07:39:28;16.85;;;9.18;;
68188;SDS011;66299;47.514;19.218;2023-02-26T07:42:00;17.45;;;9.55;;
68188;SDS011;66299;47.514;19.218;2023-02-26T07:44:30;17.00;;;9.63;;
68188;SDS011;66299;47.514;19.218;2023-02-26T07:46:59;16.98;;;9.23;;
68188;SDS011;66299;47.514;19.218;2023-02-26T07:49:27;16.10;;;8.90;;
68188;SDS011;66299;47.514;19.218;2023-02-26T07:51:58;17.50;;;9.43;;
68188;SDS011;66299;47.514;19.218;2023-02-26T07:54:29;16.15;;;9.00;;
68188;SDS011;66299;47.514;19.218;2023-02-26T07:56:57;15.30;;;8.20;;
68188;SDS011;66299;47.514;19.218;2023-02-26T07:59:26;15.25;;;8.63;;
68188;SDS011;66299;47.514;19.218;2023-02-26T08:01:59;15.50;;;8.70;;
68188;SDS011;66299;47.514;19.218;2023-02-26T08:04:28;15.73;;;9.00;;
68188;SDS011;66299;47.514;19.218;2023-02-26T08:06:59;16.40;;;8.80;;
68188;SDS011;66299;47.514;19.218;2023-02-26T08:09:31;15.57;;;8.67;;
68188;SDS011;66299;47.514;19.218;2023-02-26T08:12:01;15.85;;;8.45;;
68188;SDS011;66299;47.514;19.218;2023-02-26T08:14:33;14.55;;;8.45;;
68188;SDS011;66299;47.514;19.218;2023-02-26T08:17:02;15.05;;;8.55;;
68188;SDS011;66299;47.514;19.218;2023-02-26T08:19:31;15.68;;;8.63;;
68188;SDS011;66299;47.514;19.218;2023-02-26T08:22:00;15.07;;;8.40;;
68188;SDS011;66299;47.514;19.218;2023-02-26T08:24:32;15.90;;;8.30;;
68188;SDS011;66299;47.514;19.218;2023-02-26T08:27:00;15.13;;;8.35;;
68188;SDS011;66299;47.514;19.218;2023-02-26T08:29:37;14.02;;;7.93;;
68188;SDS011;66299;47.514;19.218;2023-02-26T08:32:08;14.93;;;8.02;;
68188;SDS011;66299;47.514;19.218;2023-02-26T08:34:37;13.48;;;6.93;;
68188;SDS011;66299;47.514;19.218;2023-02-26T08:39:38;12.77;;;6.93;;
68188;SDS011;66299;47.514;19.218;2023-02-26T08:42:07;12.45;;;6.68;;
68188;SDS011;66299;47.514;19.218;2023-02-26T08:44:38;13.40;;;7.20;;
68188;SDS011;66299;47.514;19.218;2023-02-26T08:47:10;15.40;;;6.20;;
68188;SDS011;66299;47.514;19.218;2023-02-26T08:49:42;14.82;;;7.68;;
68188;SDS011;66299;47.514;19.218;2023-02-26T08:52:15;14.02;;;7.20;;
68188;SDS011;66299;47.514;19.218;2023-02-26T08:54:47;13.13;;;6.55;;
68188;SDS011;66299;47.514;19.218;2023-02-26T08:57:15;13.43;;;6.40;;
68188;SDS011;66299;47.514;19.218;2023-02-26T08:59:44;13.45;;;6.50;;
68188;SDS011;66299;47.514;19.218;2023-02-26T09:02:14;14.73;;;7.70;;
68188;SDS011;66299;47.514;19.218;2023-02-26T09:04:43;14.18;;;6.80;;
68188;SDS011;66299;47.514;19.218;2023-02-26T09:07:13;14.77;;;6.75;;
68188;SDS011;66299;47.514;19.218;2023-02-26T09:09:46;12.18;;;5.82;;
68188;SDS011;66299;47.514;19.218;2023-02-26T09:12:16;13.02;;;6.30;;
68188;SDS011;66299;47.514;19.218;2023-02-26T09:14:45;14.02;;;6.25;;
68188;SDS011;66299;47.514;19.218;2023-02-26T09:17:14;10.77;;;4.97;;
68188;SDS011;66299;47.514;19.218;2023-02-26T09:19:44;10.88;;;5.15;;
68188;SDS011;66299;47.514;19.218;2023-02-26T09:22:13;10.73;;;5.15;;
68188;SDS011;66299;47.514;19.218;2023-02-26T09:24:42;13.05;;;5.32;;
68188;SDS011;66299;47.514;19.218;2023-02-26T09:27:14;11.75;;;5.70;;
68188;SDS011;66299;47.514;19.218;2023-02-26T09:29:45;12.80;;;6.32;;
68188;SDS011;66299;47.514;19.218;2023-02-26T09:32:14;12.45;;;6.32;;
68188;SDS011;66299;47.514;19.218;2023-02-26T09:34:44;11.75;;;5.80;;
68188;SDS011;66299;47.514;19.218;2023-02-26T09:37:13;13.50;;;6.97;;
68188;SDS011;66299;47.514;19.218;2023-02-26T09:39:41;13.35;;;6.50;;
68188;SDS011;66299;47.514;19.218;2023-02-26T09:42:19;12.23;;;5.60;;
68188;SDS011;66299;47.514;19.218;2023-02-26T09:44:59;11.52;;;5.30;;
68188;SDS011;66299;47.514;19.218;2023-02-26T09:47:35;11.73;;;5.40;;
68188;SDS011;66299;47.514;19.218;2023-02-26T09:50:15;14.32;;;5.88;;
68188;SDS011;66299;47.514;19.218;2023-02-26T09:52:47;11.35;;;5.38;;
68188;SDS011;66299;47.514;19.218;2023-02-26T09:55:27;12.55;;;5.63;;
68188;SDS011;66299;47.514;19.218;2023-02-26T09:58:00;14.13;;;6.30;;
68188;SDS011;66299;47.514;19.218;2023-02-26T10:00:32;12.70;;;6.13;;
68188;SDS011;66299;47.514;19.218;2023-02-26T10:03:08;13.90;;;5.97;;
68188;SDS011;66299;47.514;19.218;2023-02-26T10:05:48;13.00;;;6.60;;
68188;SDS011;66299;47.514;19.218;2023-02-26T10:08:30;12.75;;;5.55;;
68188;SDS011;66299;47.514;19.218;2023-02-26T10:11:06;14.52;;;6.60;;
68188;SDS011;66299;47.514;19.218;2023-02-26T10:13:44;13.32;;;7.00;;
68188;SDS011;66299;47.514;19.218;2023-02-26T10:16:24;14.77;;;7.03;;
68188;SDS011;66299;47.514;19.218;2023-02-26T10:18:57;13.23;;;6.28;;
68188;SDS011;66299;47.514;19.218;2023-02-26T10:21:31;14.65;;;6.40;;
68188;SDS011;66299;47.514;19.218;2023-02-26T10:24:05;14.00;;;6.85;;
68188;SDS011;66299;47.514;19.218;2023-02-26T10:26:49;14.30;;;6.32;;
68188;SDS011;66299;47.514;19.218;2023-02-26T10:29:23;12.82;;;6.40;;
68188;SDS011;66299;47.514;19.218;2023-02-26T10:32:02;13.82;;;7.13;;
68188;SDS011;66299;47.514;19.218;2023-02-26T10:34:46;17.90;;;8.60;;
68188;SDS011;66299;47.514;19.218;2023-02-26T10:37:20;16.25;;;7.88;;
68188;SDS011;66299;47.514;19.218;2023-02-26T10:40:08;13.93;;;7.18;;
68188;SDS011;66299;47.514;19.218;2023-02-26T10:42:42;15.65;;;8.10;;
68188;SDS011;66299;47.514;19.218;2023-02-26T10:45:27;16.42;;;9.60;;
68188;SDS011;66299;47.514;19.218;2023-02-26T10:48:12;16.50;;;9.80;;
68188;SDS011;66299;47.514;19.218;2023-02-26T10:50:50;16.02;;;9.23;;
68188;SDS011;66299;47.514;19.218;2023-02-26T10:53:20;14.30;;;7.93;;
68188;SDS011;66299;47.514;19.218;2023-02-26T10:55:50;14.45;;;8.10;;
68188;SDS011;66299;47.514;19.218;2023-02-26T10:58:26;18.13;;;10.88;;
68188;SDS011;66299;47.514;19.218;2023-02-26T11:00:56;18.17;;;10.45;;
68188;SDS011;66299;47.514;19.218;2023-02-26T11:03:28;17.60;;;10.68;;
68188;SDS011;66299;47.514;19.218;2023-02-26T11:06:00;18.58;;;10.32;;
68188;SDS011;66299;47.514;19.218;2023-02-26T11:08:34;18.75;;;10.32;;
68188;SDS011;66299;47.514;19.218;2023-02-26T11:11:09;19.23;;;11.05;;
68188;SDS011;66299;47.514;19.218;2023-02-26T11:14:01;18.45;;;11.32;;
68188;SDS011;66299;47.514;19.218;2023-02-26T11:16:33;19.50;;;11.70;;
68188;SDS011;66299;47.514;19.218;2023-02-26T11:19:02;20.35;;;11.30;;
68188;SDS011;66299;47.514;19.218;2023-02-26T11:21:39;18.08;;;11.25;;
68188;SDS011;66299;47.514;19.218;2023-02-26T11:24:10;19.60;;;11.85;;
68188;SDS011;66299;47.514;19.218;2023-02-26T11:26:43;17.77;;;11.40;;
68188;SDS011;66299;47.514;19.218;2023-02-26T11:29:17;19.15;;;12.02;;
68188;SDS011;66299;47.514;19.218;2023-02-26T11:34:21;19.05;;;12.32;;
68188;SDS011;66299;47.514;19.218;2023-02-26T11:36:51;20.23;;;12.82;;
68188;SDS011;66299;47.514;19.218;2023-02-26T11:39:22;20.05;;;12.90;;
68188;SDS011;66299;47.514;19.218;2023-02-26T11:41:52;19.98;;;12.70;;
68188;SDS011;66299;47.514;19.218;2023-02-26T11:44:27;20.50;;;12.45;;
68188;SDS011;66299;47.514;19.218;2023-02-26T11:47:06;18.33;;;10.88;;
68188;SDS011;66299;47.514;19.218;2023-02-26T11:49:40;21.00;;;12.93;;
68188;SDS011;66299;47.514;19.218;2023-02-26T11:52:18;20.63;;;11.25;;
68188;SDS011;66299;47.514;19.218;2023-02-26T11:54:50;19.75;;;12.57;;
68188;SDS011;66299;47.514;19.218;2023-02-26T11:57:25;19.63;;;12.77;;
68188;SDS011;66299;47.514;19.218;2023-02-26T11:59:58;18.90;;;12.27;;
68188;SDS011;66299;47.514;19.218;2023-02-26T12:02:32;18.83;;;12.13;;
68188;SDS011;66299;47.514;19.218;2023-02-26T12:05:02;20.38;;;12.88;;
68188;SDS011;66299;47.514;19.218;2023-02-26T12:07:35;19.33;;;12.20;;
68188;SDS011;66299;47.514;19.218;2023-02-26T12:10:08;20.27;;;12.80;;
68188;SDS011;66299;47.514;19.218;2023-02-26T12:12:48;19.73;;;12.80;;
68188;SDS011;66299;47.514;19.218;2023-02-26T12:15:29;18.88;;;12.38;;
68188;SDS011;66299;47.514;19.218;2023-02-26T12:20:57;19.63;;;12.55;;
68188;SDS011;66299;47.514;19.218;2023-02-26T12:23:45;19.45;;;12.18;;
68188;SDS011;66299;47.514;19.218;2023-02-26T12:26:30;21.25;;;12.65;;
68188;SDS011;66299;47.514;19.218;2023-02-26T12:32:06;21.75;;;10.55;;
68188;SDS011;66299;47.514;19.218;2023-02-26T12:35:09;15.82;;;8.82;;
68188;SDS011;66299;47.514;19.218;2023-02-26T12:38:08;15.52;;;8.93;;
68188;SDS011;66299;47.514;19.218;2023-02-26T12:43:46;16.30;;;8.80;;
68188;SDS011;66299;47.514;19.218;2023-02-26T12:46:21;18.20;;;7.75;;
68188;SDS011;66299;47.514;19.218;2023-02-26T12:52:17;14.90;;;8.80;;
68188;SDS011;66299;47.514;19.218;2023-02-26T12:55:02;15.27;;;8.77;;
68188;SDS011;66299;47.514;19.218;2023-02-26T12:57:57;17.83;;;10.18;;
68188;SDS011;66299;47.514;19.218;2023-02-26T13:00:58;16.92;;;9.82;;
68188;SDS011;66299;47.514;19.218;2023-02-26T13:06:36;17.63;;;9.52;;
68188;SDS011;66299;47.514;19.218;2023-02-26T13:09:16;17.75;;;10.15;;
68188;SDS011;66299;47.514;19.218;2023-02-26T13:12:00;16.13;;;9.50;;
68188;SDS011;66299;47.514;19.218;2023-02-26T13:17:20;17.88;;;9.75;;
68188;SDS011;66299;47.514;19.218;2023-02-26T13:19:55;17.65;;;9.90;;
68188;SDS011;66299;47.514;19.218;2023-02-26T13:22:28;18.13;;;10.70;;
68188;SDS011;66299;47.514;19.218;2023-02-26T13:25:03;16.33;;;9.55;;
68188;SDS011;66299;47.514;19.218;2023-02-26T13:27:42;18.27;;;9.30;;
68188;SDS011;66299;47.514;19.218;2023-02-26T13:30:17;15.88;;;8.85;;
68188;SDS011;66299;47.514;19.218;2023-02-26T13:32:53;15.18;;;8.10;;
68188;SDS011;66299;47.514;19.218;2023-02-26T13:35:25;13.70;;;7.63;;
68188;SDS011;66299;47.514;19.218;2023-02-26T13:37:57;13.90;;;7.40;;
68188;SDS011;66299;47.514;19.218;2023-02-26T13:40:34;13.98;;;7.10;;
68188;SDS011;66299;47.514;19.218;2023-02-26T13:43:17;13.63;;;6.90;;
68188;SDS011;66299;47.514;19.218;2023-02-26T13:45:56;13.10;;;6.72;;
68188;SDS011;66299;47.514;19.218;2023-02-26T13:48:37;14.23;;;7.32;;
68188;SDS011;66299;47.514;19.218;2023-02-26T13:51:11;15.27;;;7.85;;
68188;SDS011;66299;47.514;19.218;2023-02-26T13:53:54;14.90;;;8.25;;
68188;SDS011;66299;47.514;19.218;2023-02-26T13:56:46;17.83;;;8.43;;
68188;SDS011;66299;47.514;19.218;2023-02-26T13:59:29;15.52;;;8.60;;
68188;SDS011;66299;47.514;19.218;2023-02-26T14:05:32;17.23;;;9.13;;
68188;SDS011;66299;47.514;19.218;2023-02-26T14:08:09;16.42;;;9.18;;
68188;SDS011;66299;47.514;19.218;2023-02-26T14:10:53;15.48;;;8.32;;
68188;SDS011;66299;47.514;19.218;2023-02-26T14:13:37;14.35;;;6.88;;
68188;SDS011;66299;47.514;19.218;2023-02-26T14:16:11;12.93;;;6.57;;
68188;SDS011;66299;47.514;19.218;2023-02-26T14:18:42;13.55;;;6.30;;
68188;SDS011;66299;47.514;19.218;2023-02-26T14:21:37;12.80;;;6.38;;
68188;SDS011;66299;47.514;19.218;2023-02-26T14:24:16;13.82;;;6.05;;
68188;SDS011;66299;47.514;19.218;2023-02-26T14:26:49;13.05;;;6.15;;
68188;SDS011;66299;47.514;19.218;2023-02-26T14:29:38;14.63;;;6.93;;
68188;SDS011;66299;47.514;19.218;2023-02-26T14:32:12;15.60;;;7.25;;
68188;SDS011;66299;47.514;19.218;2023-02-26T14:34:47;15.90;;;7.20;;
68188;SDS011;66299;47.514;19.218;2023-02-26T14:37:21;14.25;;;7.18;;
68188;SDS011;66299;47.514;19.218;2023-02-26T14:39:53;14.80;;;7.35;;
68188;SDS011;66299;47.514;19.218;2023-02-26T14:42:27;16.73;;;7.30;;
68188;SDS011;66299;47.514;19.218;2023-02-26T14:45:07;15.23;;;7.57;;
68188;SDS011;66299;47.514;19.218;2023-02-26T14:47:41;14.73;;;7.13;;
68188;SDS011;66299;47.514;19.218;2023-02-26T14:50:14;13.98;;;7.25;;
68188;SDS011;66299;47.514;19.218;2023-02-26T14:53:01;17.50;;;8.55;;
68188;SDS011;66299;47.514;19.218;2023-02-26T15:01:34;15.55;;;7.57;;
68188;SDS011;66299;47.514;19.218;2023-02-26T15:07:34;15.85;;;7.78;;
68188;SDS011;66299;47.514;19.218;2023-02-26T15:10:23;16.73;;;7.90;;
68188;SDS011;66299;47.514;19.218;2023-02-26T15:13:06;14.52;;;7.13;;
68188;SDS011;66299;47.514;19.218;2023-02-26T15:15:53;13.60;;;7.13;;
68188;SDS011;66299;47.514;19.218;2023-02-26T15:21:09;14.10;;;6.78;;
68188;SDS011;66299;47.514;19.218;2023-02-26T15:23:48;14.45;;;6.72;;
68188;SDS011;66299;47.514;19.218;2023-02-26T15:26:21;13.05;;;6.50;;
68188;SDS011;66299;47.514;19.218;2023-02-26T15:28:57;13.50;;;6.45;;
68188;SDS011;66299;47.514;19.218;2023-02-26T15:31:29;12.95;;;6.35;;
68188;SDS011;66299;47.514;19.218;2023-02-26T15:34:02;15.38;;;7.10;;
68188;SDS011;66299;47.514;19.218;2023-02-26T15:36:31;15.10;;;7.50;;
68188;SDS011;66299;47.514;19.218;2023-02-26T15:39:00;18.80;;;8.07;;
68188;SDS011;66299;47.514;19.218;2023-02-26T15:41:35;15.02;;;7.80;;
68188;SDS011;66299;47.514;19.218;2023-02-26T15:44:07;16.45;;;7.68;;
68188;SDS011;66299;47.514;19.218;2023-02-26T15:46:40;19.30;;;8.80;;
68188;SDS011;66299;47.514;19.218;2023-02-26T15:49:14;16.35;;;8.25;;